Terminal Aerodrome Forecast
Issued by NWS

Home | Current Version | Previous Version | Text Only | Print | Product List | Glossary On
Versions: 1 2 3 4 5 6 7 8 9 10 11 12
000
FTUS42 TJSJ 251739
TAFKPK
TAF
TKPK 251739Z 2518/2618 11012KT P6SM VCSH SCT021
     FM252100 14008KT P6SM VCSH BKN016 OVC026
     FM260400 09010KT P6SM VCSH SCT018 SCT035
     FM261200 15010KT P6SM FEW020=

USA.gov is the U.S. government's official web portal to all federal, state and local government web resources and services.